sensor_id;sensor_type;location;lat;lon;timestamp;pressure;altitude;pressure_sealevel;temperature
25985;BMP280;66753;53.848;10.658;2023-04-24T00:03:58;100011.44;;;14.93
25985;BMP280;66753;53.848;10.658;2023-04-24T00:19:00;100030.91;;;15.00
25985;BMP280;66753;53.848;10.658;2023-04-24T00:34:01;100050.69;;;14.75
25985;BMP280;66753;53.848;10.658;2023-04-24T00:49:02;100030.09;;;14.68
25985;BMP280;66753;53.848;10.658;2023-04-24T01:04:03;100025.09;;;14.53
25985;BMP280;66753;53.848;10.658;2023-04-24T01:19:06;100014.78;;;14.37
25985;BMP280;66753;53.848;10.658;2023-04-24T01:34:06;99996.84;;;14.24
25985;BMP280;66753;53.848;10.658;2023-04-24T01:49:08;100005.63;;;14.21
25985;BMP280;66753;53.848;10.658;2023-04-24T02:04:08;99994.13;;;14.06
25985;BMP280;66753;53.848;10.658;2023-04-24T02:19:09;99993.34;;;13.99
25985;BMP280;66753;53.848;10.658;2023-04-24T02:34:10;99969.28;;;13.78
25985;BMP280;66753;53.848;10.658;2023-04-24T02:49:10;99963.78;;;13.46
25985;BMP280;66753;53.848;10.658;2023-04-24T03:04:12;99947.97;;;13.17
25985;BMP280;66753;53.848;10.658;2023-04-24T03:19:12;99951.19;;;12.89
25985;BMP280;66753;53.848;10.658;2023-04-24T03:34:13;99957.84;;;12.69
25985;BMP280;66753;53.848;10.658;2023-04-24T03:49:13;99947.34;;;12.47
25985;BMP280;66753;53.848;10.658;2023-04-24T04:04:13;99942.66;;;12.33
25985;BMP280;66753;53.848;10.658;2023-04-24T04:19:14;99961.53;;;12.25
25985;BMP280;66753;53.848;10.658;2023-04-24T04:34:14;99946.69;;;12.20
25985;BMP280;66753;53.848;10.658;2023-04-24T04:49:17;99960.31;;;12.19
25985;BMP280;66753;53.848;10.658;2023-04-24T05:04:21;99967.59;;;12.22
25985;BMP280;66753;53.848;10.658;2023-04-24T05:19:22;99974.91;;;12.68
25985;BMP280;66753;53.848;10.658;2023-04-24T05:34:22;99990.50;;;13.10
25985;BMP280;66753;53.848;10.658;2023-04-24T05:49:23;99986.25;;;13.56
25985;BMP280;66753;53.848;10.658;2023-04-24T06:04:23;99973.00;;;13.66
25985;BMP280;66753;53.848;10.658;2023-04-24T06:19:23;99983.59;;;14.48
25985;BMP280;66753;53.848;10.658;2023-04-24T06:34:24;99989.69;;;15.26
25985;BMP280;66753;53.848;10.658;2023-04-24T06:49:24;100000.97;;;15.93
25985;BMP280;66753;53.848;10.658;2023-04-24T07:04:25;99963.44;;;16.17
25985;BMP280;66753;53.848;10.658;2023-04-24T07:19:25;99960.88;;;16.54
25985;BMP280;66753;53.848;10.658;2023-04-24T07:34:26;99964.25;;;17.09
25985;BMP280;66753;53.848;10.658;2023-04-24T07:49:27;99965.53;;;17.35
25985;BMP280;66753;53.848;10.658;2023-04-24T08:04:28;99982.03;;;17.30
25985;BMP280;66753;53.848;10.658;2023-04-24T08:19:28;99968.19;;;17.35
25985;BMP280;66753;53.848;10.658;2023-04-24T08:34:29;99964.19;;;17.80
25985;BMP280;66753;53.848;10.658;2023-04-24T08:49:29;99988.50;;;17.96
25985;BMP280;66753;53.848;10.658;2023-04-24T09:04:30;99984.81;;;18.62
25985;BMP280;66753;53.848;10.658;2023-04-24T09:19:32;99964.69;;;18.01
25985;BMP280;66753;53.848;10.658;2023-04-24T09:34:32;99979.22;;;17.70
25985;BMP280;66753;53.848;10.658;2023-04-24T09:49:33;99973.25;;;18.42
25985;BMP280;66753;53.848;10.658;2023-04-24T10:04:35;99979.59;;;18.29
25985;BMP280;66753;53.848;10.658;2023-04-24T10:19:36;99991.13;;;17.99
25985;BMP280;66753;53.848;10.658;2023-04-24T10:34:37;99998.84;;;17.64
25985;BMP280;66753;53.848;10.658;2023-04-24T10:49:38;100010.97;;;17.75
25985;BMP280;66753;53.848;10.658;2023-04-24T11:04:38;100009.03;;;18.59
25985;BMP280;66753;53.848;10.658;2023-04-24T11:19:39;100010.09;;;19.69
25985;BMP280;66753;53.848;10.658;2023-04-24T11:34:40;100016.81;;;20.12
25985;BMP280;66753;53.848;10.658;2023-04-24T11:49:40;100001.88;;;19.18
25985;BMP280;66753;53.848;10.658;2023-04-24T12:04:41;100031.69;;;20.97
25985;BMP280;66753;53.848;10.658;2023-04-24T12:19:48;100016.88;;;20.89
25985;BMP280;66753;53.848;10.658;2023-04-24T12:34:52;100018.06;;;20.88
25985;BMP280;66753;53.848;10.658;2023-04-24T12:49:52;99988.41;;;20.11
25985;BMP280;66753;53.848;10.658;2023-04-24T13:04:53;99989.69;;;19.52
25985;BMP280;66753;53.848;10.658;2023-04-24T13:19:54;99983.69;;;20.15
25985;BMP280;66753;53.848;10.658;2023-04-24T13:34:55;99978.66;;;19.47
25985;BMP280;66753;53.848;10.658;2023-04-24T13:49:56;99959.47;;;18.86
25985;BMP280;66753;53.848;10.658;2023-04-24T14:04:56;99971.50;;;18.06
25985;BMP280;66753;53.848;10.658;2023-04-24T14:19:57;99994.75;;;17.19
25985;BMP280;66753;53.848;10.658;2023-04-24T14:35:00;100003.47;;;16.82
25985;BMP280;66753;53.848;10.658;2023-04-24T14:50:00;99998.81;;;16.93
25985;BMP280;66753;53.848;10.658;2023-04-24T15:05:00;99996.59;;;16.85
25985;BMP280;66753;53.848;10.658;2023-04-24T15:20:01;99987.75;;;16.37
25985;BMP280;66753;53.848;10.658;2023-04-24T15:35:03;99991.00;;;16.00
25985;BMP280;66753;53.848;10.658;2023-04-24T15:50:04;100005.22;;;15.80
25985;BMP280;66753;53.848;10.658;2023-04-24T16:05:05;100047.50;;;14.27
25985;BMP280;66753;53.848;10.658;2023-04-24T16:20:07;100101.72;;;13.34
25985;BMP280;66753;53.848;10.658;2023-04-24T16:35:08;100134.72;;;12.93
25985;BMP280;66753;53.848;10.658;2023-04-24T16:50:09;100141.47;;;12.24
25985;BMP280;66753;53.848;10.658;2023-04-24T17:05:10;100158.28;;;11.61
25985;BMP280;66753;53.848;10.658;2023-04-24T17:20:11;100185.84;;;11.15
25985;BMP280;66753;53.848;10.658;2023-04-24T17:35:13;100203.63;;;10.95
25985;BMP280;66753;53.848;10.658;2023-04-24T17:50:13;100195.00;;;10.48
25985;BMP280;66753;53.848;10.658;2023-04-24T18:05:14;100184.59;;;10.40
25985;BMP280;66753;53.848;10.658;2023-04-24T18:20:16;100213.22;;;10.34
25985;BMP280;66753;53.848;10.658;2023-04-24T18:35:21;100219.88;;;10.44
25985;BMP280;66753;53.848;10.658;2023-04-24T18:50:21;100232.03;;;10.29
25985;BMP280;66753;53.848;10.658;2023-04-24T19:05:22;100256.63;;;10.30
25985;BMP280;66753;53.848;10.658;2023-04-24T19:20:26;100276.28;;;10.29
25985;BMP280;66753;53.848;10.658;2023-04-24T19:35:27;100291.31;;;10.25
25985;BMP280;66753;53.848;10.658;2023-04-24T19:50:27;100301.59;;;10.42
25985;BMP280;66753;53.848;10.658;2023-04-24T20:05:28;100301.69;;;10.45
25985;BMP280;66753;53.848;10.658;2023-04-24T20:20:28;100279.72;;;10.45
25985;BMP280;66753;53.848;10.658;2023-04-24T20:35:29;100301.59;;;10.42
25985;BMP280;66753;53.848;10.658;2023-04-24T20:50:29;100303.38;;;10.38
25985;BMP280;66753;53.848;10.658;2023-04-24T21:05:32;100306.81;;;10.38
25985;BMP280;66753;53.848;10.658;2023-04-24T21:20:32;100301.28;;;10.31
25985;BMP280;66753;53.848;10.658;2023-04-24T21:35:33;100293.19;;;10.24
25985;BMP280;66753;53.848;10.658;2023-04-24T21:50:34;100304.22;;;10.26
25985;BMP280;66753;53.848;10.658;2023-04-24T22:05:34;100306.22;;;10.29
25985;BMP280;66753;53.848;10.658;2023-04-24T22:20:35;100311.34;;;10.38
25985;BMP280;66753;53.848;10.658;2023-04-24T22:35:35;100323.09;;;10.25
25985;BMP280;66753;53.848;10.658;2023-04-24T22:50:36;100350.19;;;10.06
25985;BMP280;66753;53.848;10.658;2023-04-24T23:05:37;100362.06;;;9.97
25985;BMP280;66753;53.848;10.658;2023-04-24T23:20:38;100362.50;;;9.99
25985;BMP280;66753;53.848;10.658;2023-04-24T23:35:39;100369.16;;;9.93
25985;BMP280;66753;53.848;10.658;2023-04-24T23:50:39;100361.19;;;9.93
